Latest Weather Observations for North Head

IDN60801

Issued at 2:33 pm EDT Friday 6 March 2015 (issued every 30 minutes, with the page automatically refreshed every 10 minutes)

About weather observations | Map of weather stations | Latest weather observations for NSW | Other Formats
Station Details ID: 066197 Name: NORTH HEAD Lat: -33.82 Lon: 151.30 Height: 90.0 m
Data from the previous 72 hours. | See also: Recent months for locations in New South Wales
Date/Time
EDT
Temp
°C
App
Temp
°C
Dew
Point
Rel
Hum
%
Delta-T
°C
Wind Press
QNH
hPa
Press
MSL
hPa
Rain
since 9 am
mm
Dir
 
Spd
km/h
Gust
km/h
Spd
kts
Gust
kts
06/02:30pm - - - - - W 17 24 9 13 - - -
06/02:00pm - - - - - W 15 26 8 14 - - -
06/01:30pm - - - - - W 15 26 8 14 - - -
06/01:00pm - - - - - W 17 28 9 15 - - -
06/12:30pm - - - - - W 20 32 11 17 - - -
06/12:00pm - - - - - W 20 33 11 18 - - -
06/11:30am - - - - - WNW 19 28 10 15 - - -
06/11:00am - - - - - WNW 17 28 9 15 - - -
06/10:30am - - - - - W 22 30 12 16 - - -
06/10:00am - - - - - WNW 19 33 10 18 - - -
06/09:30am - - - - - NW 13 20 7 11 - - -
06/09:00am - - - - - NW 17 24 9 13 - - -
06/08:30am - - - - - NW 15 24 8 13 - - -
06/08:00am - - - - - NW 11 22 6 12 - - -
06/07:30am - - - - - NW 11 17 6 9 - - -
06/07:00am - - - - - NW 15 24 8 13 - - -
06/06:30am - - - - - NW 13 20 7 11 - - -
06/06:00am - - - - - NNW 15 20 8 11 - - -
06/05:30am - - - - - NNW 13 19 7 10 - - -
06/05:00am - - - - - NNW 13 20 7 11 - - -
06/04:30am - - - - - NW 13 19 7 10 - - -
06/04:00am - - - - - NW 11 15 6 8 - - -
06/03:30am - - - - - NW 9 13 5 7 - - -
06/03:00am - - - - - WNW 9 15 5 8 - - -
06/02:30am - - - - - WNW 11 17 6 9 - - -
06/02:00am - - - - - WNW 7 13 4 7 - - -
06/01:30am - - - - - WNW 7 9 4 5 - - -
06/01:00am - - - - - WNW 7 13 4 7 - - -
06/12:30am - - - - - SW 4 6 2 3 - - -
06/12:00am - - - - - SSW 4 7 2 4 - - -
 
Date/Time
EDT
Temp
°C
App
Temp
°C
Dew
Point
Rel
Hum
%
Delta-T
°C
Wind Press
QNH
hPa
Press
MSL
hPa
Rain
since 9 am
mm
Dir
 
Spd
km/h
Gust
km/h
Spd
kts
Gust
kts
05/11:30pm - - - - - S 4 9 2 5 - - -
05/11:00pm - - - - - SSE 7 15 4 8 - - -
05/10:30pm - - - - - S 13 20 7 11 - - -
05/10:00pm - - - - - SSE 17 24 9 13 - - -
05/09:30pm - - - - - SSE 17 28 9 15 - - -
05/09:00pm - - - - - SSE 20 35 11 19 - - -
05/08:30pm - - - - - SSE 22 33 12 18 - - -
05/08:00pm - - - - - SSE 20 30 11 16 - - -
05/07:30pm - - - - - SSE 24 39 13 21 - - -
05/07:00pm - - - - - SSE 24 35 13 19 - - -
05/06:30pm - - - - - SSE 24 33 13 18 - - -
05/06:00pm - - - - - SSE 28 39 15 21 - - -
05/05:30pm - - - - - SSE 32 46 17 25 - - -
05/05:00pm - - - - - SSE 32 46 17 25 - - -
05/04:30pm - - - - - SSE 33 46 18 25 - - -
05/04:00pm - - - - - SSE 30 46 16 25 - - -
05/03:30pm - - - - - SSE 30 43 16 23 - - -
05/03:00pm - - - - - SSE 32 46 17 25 - - -
05/02:30pm - - - - - SSE 32 46 17 25 - - -
05/02:00pm - - - - - SSE 35 48 19 26 - - -
05/01:30pm - - - - - SSE 37 56 20 30 - - -
05/01:28pm - - - - - S 35 56 19 30 - - -
05/01:22pm - - - - - SW 26 54 14 29 - - -
05/01:00pm - - - - - SW 20 30 11 16 - - -
05/12:30pm - - - - - WSW 26 37 14 20 - - -
05/12:00pm - - - - - WSW 26 39 14 21 - - -
05/11:30am - - - - - WSW 20 41 11 22 - - -
05/11:00am - - - - - WSW 22 35 12 19 - - -
05/10:30am - - - - - SW 15 24 8 13 - - -
05/10:00am - - - - - WSW 17 26 9 14 - - -
05/09:30am - - - - - WSW 22 33 12 18 - - -
05/09:00am - - - - - W 7 11 4 6 - - -
05/08:30am - - - - - W 6 9 3 5 - - -
05/08:00am - - - - - W 9 13 5 7 - - -
05/07:30am - - - - - W 13 15 7 8 - - -
05/07:00am - - - - - W 11 15 6 8 - - -
05/06:30am - - - - - WSW 15 20 8 11 - - -
05/06:00am - - - - - W 13 19 7 10 - - -
05/05:30am - - - - - WNW 13 19 7 10 - - -
05/05:00am - - - - - W 15 20 8 11 - - -
05/04:30am - - - - - W 15 17 8 9 - - -
05/04:00am - - - - - W 11 13 6 7 - - -
05/03:30am - - - - - NW 9 11 5 6 - - -
05/03:00am - - - - - NW 7 9 4 5 - - -
05/02:30am - - - - - NW 7 9 4 5 - - -
05/02:00am - - - - - W 9 11 5 6 - - -
05/01:30am - - - - - WNW 11 13 6 7 - - -
05/01:00am - - - - - WNW 7 9 4 5 - - -
05/12:30am - - - - - W 7 9 4 5 - - -
05/12:00am - - - - - W 7 9 4 5 - - -
 
Date/Time
EDT
Temp
°C
App
Temp
°C
Dew
Point
Rel
Hum
%
Delta-T
°C
Wind Press
QNH
hPa
Press
MSL
hPa
Rain
since 9 am
mm
Dir
 
Spd
km/h
Gust
km/h
Spd
kts
Gust
kts
04/11:30pm - - - - - N 6 7 3 4 - - -
04/11:00pm - - - - - NNE 7 9 4 5 - - -
04/10:30pm - - - - - NNE 7 9 4 5 - - -
04/10:00pm - - - - - N 9 11 5 6 - - -
04/09:30pm - - - - - N 9 13 5 7 - - -
04/09:00pm - - - - - N 9 15 5 8 - - -
04/08:30pm - - - - - NNE 11 15 6 8 - - -
04/08:00pm - - - - - NNE 11 15 6 8 - - -
04/07:30pm - - - - - NNE 11 15 6 8 - - -
04/07:00pm - - - - - NE 11 15 6 8 - - -
04/06:30pm - - - - - ENE 11 17 6 9 - - -
04/06:00pm - - - - - ENE 11 15 6 8 - - -
04/05:30pm - - - - - ENE 9 13 5 7 - - -
04/05:00pm - - - - - ESE 13 17 7 9 - - -
04/04:30pm - - - - - ESE 13 17 7 9 - - -
04/04:00pm - - - - - ESE 11 17 6 9 - - -
04/03:30pm - - - - - ESE 13 15 7 8 - - -
04/03:00pm - - - - - SE 9 15 5 8 - - -
04/02:30pm - - - - - SE 11 15 6 8 - - -
04/02:00pm - - - - - SSE 11 15 6 8 - - -
04/01:30pm - - - - - SE 9 13 5 7 - - -
04/01:00pm - - - - - SSE 9 13 5 7 - - -
04/12:30pm - - - - - S 13 20 7 11 - - -
04/12:00pm - - - - - S 13 22 7 12 - - -
04/11:30am - - - - - S 15 22 8 12 - - -
04/11:00am - - - - - S 15 22 8 12 - - -
04/10:30am - - - - - S 15 24 8 13 - - -
04/10:00am - - - - - S 11 17 6 9 - - -
04/09:30am - - - - - SSW 7 13 4 7 - - -
04/09:00am - - - - - SW 7 13 4 7 - - -
04/08:30am - - - - - SW 7 11 4 6 - - -
04/08:00am - - - - - WSW 6 11 3 6 - - -
04/07:30am - - - - - SW 9 11 5 6 - - -
04/07:00am - - - - - SW 9 13 5 7 - - -
04/06:30am - - - - - SW 7 11 4 6 - - -
04/06:00am - - - - - SW 6 9 3 5 - - -
04/05:30am - - - - - SSW 7 13 4 7 - - -
04/05:00am - - - - - SW 6 9 3 5 - - -
04/04:30am - - - - - SW 6 9 3 5 - - -
04/04:00am - - - - - SSW 9 15 5 8 - - -
04/03:30am - - - - - SW 7 9 4 5 - - -
04/03:00am - - - - - S 9 15 5 8 - - -
04/02:30am - - - - - S 9 13 5 7 - - -
04/02:00am - - - - - S 6 7 3 4 - - -
04/01:30am - - - - - S 6 6 3 3 - - -
04/01:00am - - - - - SSE 6 6 3 3 - - -
04/12:30am - - - - - SSE 4 6 2 3 - - -
04/12:00am - - - - - S 2 4 1 2 - - -
 
Date/Time
EDT
Temp
°C
App
Temp
°C
Dew
Point
Rel
Hum
%
Delta-T
°C
Wind Press
QNH
hPa
Press
MSL
hPa
Rain
since 9 am
mm
Dir
 
Spd
km/h
Gust
km/h
Spd
kts
Gust
kts
03/11:30pm - - - - - E 2 2 1 1 - - -
03/11:00pm - - - - - CALM 0 2 0 1 - - -
03/10:30pm - - - - - ENE 6 11 3 6 - - -
03/10:00pm - - - - - ENE 7 13 4 7 - - -
03/09:30pm - - - - - ENE 7 11 4 6 - - -
03/09:00pm - - - - - ENE 9 15 5 8 - - -
03/08:30pm - - - - - NE 11 15 6 8 - - -
03/08:00pm - - - - - NE 11 15 6 8 - - -
03/07:30pm - - - - - NE 11 17 6 9 - - -
03/07:00pm - - - - - NNE 13 19 7 10 - - -
03/06:30pm - - - - - NE 15 22 8 12 - - -
03/06:00pm - - - - - NE 15 22 8 12 - - -
03/05:30pm - - - - - NE 17 24 9 13 - - -
03/05:00pm - - - - - ENE 15 20 8 11 - - -
03/04:30pm - - - - - ENE 17 24 9 13 - - -
03/04:00pm - - - - - ENE 19 28 10 15 - - -
03/03:30pm - - - - - ENE 20 30 11 16 - - -
03/03:00pm - - - - - ENE 19 28 10 15 - - -

Other Formats:

Comma delimited format used in spreadsheet applications
http://www.bom.gov.au/fwo/IDN60801/IDN60801.95768.axf

JavaScript Object Notation format (JSON) in row-major order
http://www.bom.gov.au/fwo/IDN60801/IDN60801.95768.json